logo
Search for airport 
image banner adimage banner adimage banner ad
image banner ad

YXBC - Beechmont

Located in Witheren, Australia

ICAO - , IATA -

Data provided by Airmate  

General information

Coordinates: S28°4'60" E153°12'0"
Elevation is 1302 feet MSL.
Magnetic variation is 11° East
View others Airports in Queensland

Operational data

Special qualification required
Current time UTC:
Current local time:
Weather at : YBCG - Gold Coast ( 31 km )
METAR: YBCG 232030Z AUTO 19002KT 9999 // NCD 11/11 Q1025 RF00.0/000.0
TAF: TAF AMD YBCG 231715Z 2318/2418 22004KT 9999 -SHRA FEW030 FM240000 17007KT 9999 NSW FEW040 FM240300 07009KT 9999 FEW040 FM240800 VRB04KT 9999 -SHRA FEW015 SCT025 INTER 2412/2418 4000 SHRA SCT008 BKN020
View NOTAMs / SUP AIP / TFR affecting this airport [VIEW]
Communications frequencies: [VIEW]

Runways:

Airport contact information

Address: Witheren Australia

Satellite view of YXBC